Time;durP1;ratioP1;P1;durP2;ratioP2;P2;SDS_P1;SDS_P2;PMS_P1;PMS_P2;Temp;Humidity;BMP_temperature;BMP_pressure;BME280_temperature;BME280_humidity;BME280_pressure;Samples;Min_cycle;Max_cycle;Signal;HPM_P1;HPM_P2
2021/12/15 00:01:45;;;;;;;76.13;40.40;;;9.60;99.90;;;;;;5076392;28;20024;-80
2021/12/15 00:04:11;;;;;;;82.45;43.53;;;9.50;99.90;;;;;;5075880;28;20032;-81
2021/12/15 00:06:38;;;;;;;81.68;44.35;;;9.50;99.90;;;;;;5058903;28;20020;-83
2021/12/15 00:09:08;;;;;;;82.68;42.80;;;9.60;99.90;;;;;;5067768;28;20430;-85
2021/12/15 00:11:37;;;;;;;90.57;42.15;;;9.70;99.90;;;;;;5057335;28;20096;-84
2021/12/15 00:14:06;;;;;;;76.63;38.25;;;9.70;99.90;;;;;;5055571;28;20111;-84
2021/12/15 00:16:32;;;;;;;86.15;42.90;;;9.50;99.90;;;;;;5056693;28;20048;-85
2021/12/15 00:18:58;;;;;;;82.32;42.10;;;9.50;99.90;;;;;;5037874;28;20032;-84
2021/12/15 00:21:24;;;;;;;85.07;43.95;;;9.50;99.90;;;;;;5056876;28;20076;-85
2021/12/15 00:23:50;;;;;;;82.57;43.97;;;9.50;99.90;;;;;;5055530;28;20040;-85
2021/12/15 00:26:16;;;;;;;79.65;42.65;;;9.60;99.90;;;;;;5053660;28;20485;-84
2021/12/15 00:28:44;;;;;;;83.90;42.65;;;9.50;99.90;;;;;;5055268;28;20029;-85
2021/12/15 00:31:10;;;;;;;84.65;44.15;;;9.50;99.90;;;;;;5055658;28;20017;-85
2021/12/15 00:33:38;;;;;;;80.13;40.05;;;9.50;99.90;;;;;;5054653;28;20025;-85
2021/12/15 00:36:05;;;;;;;84.80;43.53;;;9.60;99.90;;;;;;5055242;28;20461;-85
2021/12/15 00:38:32;;;;;;;86.13;43.72;;;9.60;99.90;;;;;;5037747;28;20053;-84
2021/12/15 00:40:59;;;;;;;81.57;40.90;;;9.70;99.90;;;;;;5054926;28;20037;-84
2021/12/15 00:43:25;;;;;;;84.53;42.85;;;9.70;99.90;;;;;;5052876;28;20486;-85
2021/12/15 00:45:51;;;;;;;70.65;40.00;;;9.80;99.90;;;;;;5060802;28;20037;-85
2021/12/15 00:48:17;;;;;;;77.55;40.60;;;9.70;99.90;;;;;;5059296;28;20025;-84
2021/12/15 00:50:45;;;;;;;75.07;40.55;;;9.80;99.90;;;;;;5057724;28;20116;-85
2021/12/15 00:53:10;;;;;;;71.72;40.17;;;9.70;99.90;;;;;;5060425;28;20032;-84
2021/12/15 00:55:37;;;;;;;80.53;42.15;;;9.60;99.90;;;;;;5058196;28;20429;-85
2021/12/15 00:58:05;;;;;;;79.90;42.63;;;9.60;99.90;;;;;;5060188;28;20397;-85
2021/12/15 01:00:39;;;;;;;71.70;38.22;;;9.60;99.90;;;;;;5079541;28;20492;-84
2021/12/15 01:03:06;;;;;;;75.70;41.55;;;9.60;99.90;;;;;;5078054;28;20041;-85
2021/12/15 01:05:35;;;;;;;76.70;39.75;;;9.60;99.90;;;;;;5079996;28;20017;-85
2021/12/15 01:08:06;;;;;;;75.53;39.95;;;9.50;99.90;;;;;;5075747;28;20024;-83
2021/12/15 01:11:49;;;;;;;82.93;41.45;;;9.50;99.90;;;;;;5069841;28;20033;-84
2021/12/15 01:21:50;;;;;;;77.75;39.53;;;9.60;99.90;;;;;;5068446;28;20033;-84
2021/12/15 01:24:17;;;;;;;77.97;38.45;;;9.60;99.90;;;;;;5067505;28;20101;-84
2021/12/15 01:26:44;;;;;;;87.63;42.88;;;9.60;99.90;;;;;;5083281;28;20025;-84
2021/12/15 01:29:10;;;;;;;80.75;39.53;;;9.70;99.90;;;;;;5079572;28;20028;-85
2021/12/15 01:31:36;;;;;;;84.60;38.83;;;9.70;99.90;;;;;;5078634;28;20039;-84
2021/12/15 01:34:02;;;;;;;78.03;42.08;;;9.70;99.90;;;;;;5080976;28;20037;-83
2021/12/15 01:36:28;;;;;;;73.78;41.13;;;9.70;99.90;;;;;;5078374;28;20028;-84
2021/12/15 01:38:54;;;;;;;83.22;41.63;;;9.70;99.90;;;;;;5077684;28;20166;-84
2021/12/15 01:41:23;;;;;;;80.07;40.38;;;9.70;99.90;;;;;;5079146;28;20096;-84
2021/12/15 01:46:56;;;;;;;84.43;41.42;;;9.60;99.90;;;;;;5079527;28;20037;-85
2021/12/15 01:49:27;;;;;;;81.97;40.03;;;9.60;99.90;;;;;;5079413;28;20029;-85
2021/12/15 01:51:54;;;;;;;84.05;40.15;;;9.60;99.90;;;;;;5078067;28;20025;-85
2021/12/15 01:54:22;;;;;;;81.00;36.88;;;9.60;99.90;;;;;;5077586;28;20028;-85
2021/12/15 01:56:50;;;;;;;81.20;41.35;;;9.60;99.90;;;;;;5076983;28;20119;-84
2021/12/15 01:59:19;;;;;;;83.68;41.70;;;9.50;99.90;;;;;;5078131;28;20427;-85
2021/12/15 02:01:45;;;;;;;77.60;41.30;;;9.50;99.90;;;;;;5076062;28;20032;-85
2021/12/15 02:04:11;;;;;;;80.80;41.53;;;9.60;99.90;;;;;;5076064;28;20067;-85
2021/12/15 02:06:42;;;;;;;88.50;41.25;;;9.60;99.90;;;;;;5077434;28;20020;-86
2021/12/15 02:09:09;;;;;;;80.57;40.40;;;9.60;99.90;;;;;;5067268;28;20044;-85
2021/12/15 02:11:35;;;;;;;74.50;37.13;;;9.60;99.90;;;;;;5056782;28;20021;-85
2021/12/15 02:14:00;;;;;;;75.35;39.92;;;9.50;99.90;;;;;;5057812;28;20479;-85
2021/12/15 02:16:27;;;;;;;79.25;39.83;;;9.60;99.90;;;;;;5055135;28;20028;-86
2021/12/15 02:18:53;;;;;;;81.97;40.22;;;9.60;99.90;;;;;;5054513;28;20029;-86
2021/12/15 02:21:24;;;;;;;74.05;38.83;;;9.70;99.90;;;;;;5055586;28;20079;-86
2021/12/15 02:23:55;;;;;;;78.60;37.80;;;9.60;99.90;;;;;;5056224;28;20076;-85
2021/12/15 02:26:27;;;;;;;81.97;40.85;;;9.50;99.90;;;;;;5068508;28;20105;-86
2021/12/15 02:28:59;;;;;;;82.07;40.25;;;9.40;99.90;;;;;;5077109;28;20024;-85
2021/12/15 02:37:16;;;;;;;81.82;41.20;;;9.50;99.90;;;;;;5064248;28;20047;-85
2021/12/15 02:39:43;;;;;;;82.60;39.40;;;9.60;99.90;;;;;;5075193;28;20028;-84
2021/12/15 02:42:09;;;;;;;82.95;39.63;;;9.50;99.90;;;;;;5075424;28;20082;-85
2021/12/15 02:44:36;;;;;;;90.63;40.50;;;9.40;99.90;;;;;;5059873;28;20041;-84
2021/12/15 02:47:02;;;;;;;82.88;40.45;;;9.40;99.90;;;;;;5056622;28;20025;-84
2021/12/15 02:49:29;;;;;;;82.97;41.20;;;9.50;99.90;;;;;;5056913;28;20041;-84
2021/12/15 02:51:58;;;;;;;84.75;38.17;;;9.50;99.90;;;;;;5056821;28;20036;-85
2021/12/15 02:54:26;;;;;;;83.05;42.05;;;9.40;99.90;;;;;;5057180;28;20085;-85
2021/12/15 02:56:54;;;;;;;82.55;40.42;;;9.50;99.90;;;;;;5056289;28;20032;-84
2021/12/15 02:59:29;;;;;;;81.32;39.80;;;9.50;99.90;;;;;;5055835;28;20038;-85
2021/12/15 03:04:45;;;;;;;87.55;43.92;;;9.50;99.90;;;;;;5057072;28;20068;-85
2021/12/15 03:07:33;;;;;;;88.43;40.83;;;9.60;99.90;;;;;;5055314;28;20111;-85
2021/12/15 03:15:34;;;;;;;88.88;41.10;;;9.40;99.90;;;;;;5054938;28;20021;-85
2021/12/15 03:18:02;;;;;;;;;;;9.50;99.90;;;;;;5054509;28;20044;-85
2021/12/15 03:20:32;;;;;;;93.35;41.97;;;9.40;99.90;;;;;;5052774;28;19916;-85
2021/12/15 03:23:00;;;;;;;83.63;40.83;;;9.50;99.90;;;;;;5053808;28;20147;-86
2021/12/15 03:25:30;;;;;;;82.00;40.45;;;9.60;99.90;;;;;;5059863;28;20033;-85
2021/12/15 03:36:35;;;;;;;79.35;39.13;;;9.50;99.90;;;;;;5053581;28;20084;-85
2021/12/15 03:39:01;;;;;;;83.63;38.55;;;9.50;99.90;;;;;;5054401;28;20032;-84
2021/12/15 03:41:27;;;;;;;84.95;39.05;;;9.60;99.90;;;;;;5057684;28;20041;-85
2021/12/15 03:43:53;;;;;;;78.60;38.13;;;9.60;99.90;;;;;;5055907;28;20120;-86
2021/12/15 03:46:19;;;;;;;85.20;39.67;;;9.70;99.90;;;;;;5054951;28;20021;-84
2021/12/15 03:48:45;;;;;;;64.97;25.77;;;9.50;99.90;;;;;;5053592;28;20033;-84
2021/12/15 03:51:13;;;;;;;85.95;40.65;;;9.50;99.90;;;;;;5055634;28;20048;-85
2021/12/15 03:53:40;;;;;;;82.47;39.55;;;9.50;99.90;;;;;;5055310;28;20033;-84
2021/12/15 03:56:09;;;;;;;84.53;40.70;;;9.50;99.90;;;;;;5057268;28;20044;-85
2021/12/15 03:58:34;;;;;;;91.13;40.97;;;9.50;99.90;;;;;;5058664;28;20086;-85
2021/12/15 04:01:07;;;;;;;79.65;37.75;;;9.50;99.90;;;;;;5057551;28;20058;-84
2021/12/15 04:03:45;;;;;;;86.13;39.90;;;9.50;99.90;;;;;;5055821;28;20044;-86
2021/12/15 04:06:20;;;;;;;84.57;39.67;;;9.50;99.90;;;;;;5055083;28;20029;-84
2021/12/15 04:08:46;;;;;;;84.93;40.33;;;9.60;99.90;;;;;;5062995;28;20024;-83
2021/12/15 04:11:15;;;;;;;77.30;37.13;;;9.60;99.90;;;;;;5074366;28;20354;-85
2021/12/15 04:13:45;;;;;;;86.20;39.97;;;9.50;99.90;;;;;;5074554;28;20029;-83
2021/12/15 04:16:26;;;;;;;84.28;41.15;;;9.50;99.90;;;;;;5075450;28;20103;-84
2021/12/15 04:18:52;;;;;;;79.25;39.13;;;9.50;99.90;;;;;;5075499;28;20499;-84
2021/12/15 04:21:17;;;;;;;79.75;38.72;;;9.60;99.90;;;;;;5077833;28;20036;-85
2021/12/15 04:23:52;;;;;;;79.38;39.63;;;9.60;99.90;;;;;;5078629;28;20041;-84
2021/12/15 04:26:18;;;;;;;82.90;40.72;;;9.60;99.90;;;;;;5078561;28;20047;-85
2021/12/15 04:28:44;;;;;;;79.57;37.10;;;9.60;99.90;;;;;;5076704;28;20021;-84
2021/12/15 04:31:16;;;;;;;77.20;38.55;;;9.70;99.90;;;;;;5078271;28;20021;-85
2021/12/15 04:33:54;;;;;;;78.18;39.25;;;9.70;99.90;;;;;;5077129;28;20032;-84
2021/12/15 04:36:22;;;;;;;75.78;36.92;;;9.60;99.90;;;;;;5077601;28;20056;-84
2021/12/15 04:38:47;;;;;;;82.05;38.13;;;9.60;99.90;;;;;;5078563;28;20124;-84
2021/12/15 04:41:19;;;;;;;78.65;38.78;;;9.70;99.90;;;;;;5078795;28;20181;-85
2021/12/15 04:43:55;;;;;;;74.32;37.75;;;9.80;99.90;;;;;;5076268;28;20036;-84
2021/12/15 04:46:22;;;;;;;82.38;39.53;;;9.70;99.90;;;;;;5075543;28;20048;-85
2021/12/15 04:48:48;;;;;;;83.13;39.83;;;9.70;99.90;;;;;;5075652;28;20031;-84
2021/12/15 04:51:14;;;;;;;68.25;37.47;;;9.70;99.90;;;;;;5076749;28;20028;-86
2021/12/15 04:53:41;;;;;;;76.45;37.00;;;9.70;99.90;;;;;;5076499;28;20036;-85
2021/12/15 04:56:07;;;;;;;75.93;37.08;;;9.70;99.90;;;;;;5077117;28;20017;-84
2021/12/15 04:58:34;;;;;;;79.07;39.08;;;9.70;99.90;;;;;;5077844;28;20476;-85
2021/12/15 05:01:04;;;;;;;79.80;38.80;;;9.70;99.90;;;;;;5078398;28;20021;-85
2021/12/15 05:03:30;;;;;;;71.18;37.95;;;9.70;99.90;;;;;;5075811;28;20036;-85
2021/12/15 05:05:56;;;;;;;80.20;39.35;;;9.70;99.90;;;;;;5076857;28;20024;-85
2021/12/15 05:08:23;;;;;;;76.75;38.65;;;9.70;99.90;;;;;;5072585;28;20158;-85
2021/12/15 05:10:50;;;;;;;80.85;40.22;;;9.70;99.90;;;;;;5056671;28;20041;-84
2021/12/15 05:13:17;;;;;;;76.93;38.72;;;9.90;99.90;;;;;;5055702;28;20048;-85
2021/12/15 05:15:44;;;;;;;79.75;39.97;;;9.80;99.90;;;;;;5055944;28;20052;-85
2021/12/15 05:18:10;;;;;;;60.15;29.98;;;9.70;99.90;;;;;;5055969;28;20474;-85
2021/12/15 05:20:39;;;;;;;76.32;36.97;;;9.70;99.90;;;;;;5055454;28;20048;-85
2021/12/15 05:23:05;;;;;;;68.88;37.53;;;9.70;99.90;;;;;;5055733;28;20108;-85
2021/12/15 05:25:31;;;;;;;69.43;34.90;;;9.70;99.90;;;;;;5039587;28;20021;-85
2021/12/15 05:27:57;;;;;;;68.47;38.67;;;9.60;99.90;;;;;;5054943;28;20027;-86
2021/12/15 05:30:23;;;;;;;69.53;36.85;;;9.70;99.90;;;;;;5054350;28;20025;-86
2021/12/15 05:32:50;;;;;;;71.32;36.90;;;9.80;99.90;;;;;;5054198;28;20033;-85
2021/12/15 05:35:22;;;;;;;71.88;38.42;;;9.70;99.90;;;;;;5055395;28;20021;-85
2021/12/15 05:37:49;;;;;;;;;;;9.80;99.90;;;;;;5055222;28;20029;-84
2021/12/15 05:40:15;;;;;;;72.82;37.85;;;9.70;99.90;;;;;;5055531;28;19909;-85
2021/12/15 05:42:41;;;;;;;71.38;36.70;;;9.70;99.90;;;;;;5055305;28;20029;-85
2021/12/15 05:45:08;;;;;;;72.57;37.40;;;9.80;99.90;;;;;;5055075;28;20481;-85
2021/12/15 05:47:34;;;;;;;79.70;38.25;;;9.70;99.90;;;;;;5055177;28;20021;-84
2021/12/15 05:50:00;;;;;;;71.97;36.47;;;9.90;99.90;;;;;;5055357;28;20033;-85
2021/12/15 05:52:30;;;;;;;66.80;36.58;;;9.80;99.90;;;;;;5073854;28;20033;-85
2021/12/15 05:54:57;;;;;;;67.32;38.53;;;9.80;99.90;;;;;;5075009;28;20037;-85
2021/12/15 05:57:23;;;;;;;68.43;36.33;;;9.80;99.90;;;;;;5074979;28;20020;-85
2021/12/15 05:59:49;;;;;;;68.18;36.47;;;9.80;99.90;;;;;;5073744;28;20369;-84
2021/12/15 06:02:15;;;;;;;70.47;36.85;;;9.80;99.90;;;;;;5074959;28;20532;-84
2021/12/15 06:04:41;;;;;;;66.25;35.85;;;9.80;99.90;;;;;;5075336;28;20431;-84
2021/12/15 06:07:07;;;;;;;55.47;31.05;;;9.80;99.90;;;;;;5073698;28;20078;-84
2021/12/15 06:09:34;;;;;;;63.60;34.65;;;9.70;99.90;;;;;;5060447;28;20385;-84
2021/12/15 06:12:01;;;;;;;71.35;35.78;;;9.80;99.90;;;;;;5055099;28;20029;-84
2021/12/15 06:14:28;;;;;;;68.32;35.90;;;9.80;99.90;;;;;;5053880;28;20083;-83
2021/12/15 06:17:08;;;;;;;66.15;34.90;;;9.80;99.90;;;;;;5054768;28;20032;-84
2021/12/15 06:19:34;;;;;;;63.67;35.72;;;9.80;99.90;;;;;;5055974;28;20036;-84
2021/12/15 06:22:02;;;;;;;65.22;36.85;;;9.80;99.90;;;;;;5055266;28;20039;-84
2021/12/15 06:24:29;;;;;;;69.53;36.65;;;9.90;99.90;;;;;;5055246;28;20120;-85
2021/12/15 06:26:57;;;;;;;64.18;35.83;;;9.80;99.90;;;;;;5070433;28;20408;-85
2021/12/15 06:29:23;;;;;;;57.80;34.13;;;9.80;99.90;;;;;;5074956;28;20024;-85
2021/12/15 06:31:49;;;;;;;61.08;33.70;;;9.80;99.90;;;;;;5073542;28;20511;-84
2021/12/15 06:34:15;;;;;;;59.47;33.05;;;9.80;99.90;;;;;;5072808;28;20043;-83
2021/12/15 06:36:42;;;;;;;61.85;34.40;;;9.90;99.90;;;;;;5079749;28;20511;-84
2021/12/15 06:39:09;;;;;;;64.82;34.33;;;9.90;99.90;;;;;;5089031;28;20165;-82
2021/12/15 06:41:35;;;;;;;60.78;34.78;;;10.00;99.90;;;;;;5067983;28;20009;-83
2021/12/15 06:44:01;;;;;;;60.35;34.08;;;9.90;99.90;;;;;;5068065;28;20090;-83
2021/12/15 06:59:54;;;;;;;52.20;31.55;;;10.00;99.90;;;;;;5056691;28;20021;-84
2021/12/15 07:02:20;;;;;;;60.35;31.75;;;10.00;99.90;;;;;;5054789;28;20037;-83
2021/12/15 07:04:46;;;;;;;58.70;33.47;;;10.00;99.90;;;;;;5069199;28;20051;-81
2021/12/15 07:07:13;;;;;;;59.15;33.53;;;9.90;99.90;;;;;;5075500;28;20120;-84
2021/12/15 07:09:40;;;;;;;53.78;31.73;;;10.00;99.90;;;;;;5074656;28;20040;-83
2021/12/15 07:12:06;;;;;;;49.60;31.48;;;9.90;99.90;;;;;;5077350;28;20020;-83
2021/12/15 07:14:32;;;;;;;53.45;31.75;;;10.00;99.90;;;;;;5077150;28;20032;-80
2021/12/15 07:16:59;;;;;;;58.03;31.35;;;9.90;99.90;;;;;;5075304;28;20036;-84
2021/12/15 07:22:29;;;;;;;57.58;32.60;;;10.10;99.90;;;;;;5078265;28;20046;-83
2021/12/15 07:24:43;;;;;;;56.38;30.92;;;10.10;99.90;;;;;;5081846;28;20064;-83
2021/12/15 07:27:09;;;;;;;51.38;32.22;;;10.00;99.90;;;;;;5062582;28;20060;-82
2021/12/15 07:29:36;;;;;;;55.70;31.55;;;10.10;99.90;;;;;;5063926;28;20071;-83
2021/12/15 07:32:08;;;;;;;58.63;32.45;;;10.10;99.90;;;;;;5064975;28;20466;-83
2021/12/15 07:34:36;;;;;;;54.65;31.10;;;10.10;99.90;;;;;;5063637;28;20116;-83
2021/12/15 07:37:02;;;;;;;50.53;29.85;;;10.20;99.90;;;;;;5063893;28;20032;-82
2021/12/15 07:39:31;;;;;;;56.72;33.75;;;10.00;99.90;;;;;;5064955;28;20029;-84
2021/12/15 07:42:09;;;;;;;54.67;33.13;;;10.00;99.90;;;;;;5063747;28;20116;-82
2021/12/15 07:44:36;;;;;;;54.40;30.88;;;10.00;99.90;;;;;;5059143;28;20033;-83
2021/12/15 07:47:03;;;;;;;54.83;32.95;;;10.10;99.90;;;;;;5056554;28;20031;-83
2021/12/15 07:49:30;;;;;;;55.05;31.75;;;10.10;99.90;;;;;;5058801;28;20025;-83
2021/12/15 07:52:01;;;;;;;54.03;30.30;;;10.10;99.90;;;;;;5058178;28;20040;-82
2021/12/15 07:54:32;;;;;;;49.85;31.92;;;10.00;99.90;;;;;;5055127;28;20158;-83
2021/12/15 07:57:03;;;;;;;55.78;31.80;;;10.00;99.90;;;;;;5056894;28;20032;-83
2021/12/15 07:59:29;;;;;;;56.75;32.30;;;10.10;99.90;;;;;;5057382;28;20119;-84
2021/12/15 08:01:55;;;;;;;57.08;33.72;;;10.10;99.90;;;;;;5058347;28;20393;-84
2021/12/15 08:04:21;;;;;;;56.33;32.30;;;10.20;99.90;;;;;;5057716;28;20045;-84
2021/12/15 08:06:47;;;;;;;55.53;32.75;;;10.20;99.90;;;;;;5055201;28;20044;-83
2021/12/15 08:09:15;;;;;;;59.88;32.72;;;10.20;99.90;;;;;;5063249;28;20396;-83
2021/12/15 08:11:41;;;;;;;62.83;32.83;;;10.20;99.90;;;;;;5076064;28;20036;-84
2021/12/15 08:14:07;;;;;;;55.55;32.78;;;10.10;99.90;;;;;;5078605;28;20017;-84
2021/12/15 08:16:34;;;;;;;56.88;34.78;;;10.20;99.90;;;;;;5076314;28;20120;-84
2021/12/15 08:18:59;;;;;;;56.03;32.30;;;10.20;99.90;;;;;;5075479;28;20036;-83
2021/12/15 08:21:25;;;;;;;59.47;33.97;;;10.20;99.90;;;;;;5075303;28;20035;-84
2021/12/15 08:23:51;;;;;;;53.50;33.92;;;10.10;99.90;;;;;;5075227;28;20068;-84
2021/12/15 08:26:17;;;;;;;55.90;33.70;;;10.20;99.90;;;;;;5070235;28;20373;-84
2021/12/15 08:28:43;;;;;;;59.55;33.17;;;10.20;99.90;;;;;;5069355;28;20028;-84
2021/12/15 08:31:09;;;;;;;58.25;32.78;;;10.10;99.90;;;;;;5055059;28;20025;-82
2021/12/15 08:33:36;;;;;;;54.85;33.72;;;10.10;99.90;;;;;;5059170;28;20060;-84
2021/12/15 08:36:07;;;;;;;59.80;35.33;;;10.20;99.90;;;;;;5057505;28;20029;-83
2021/12/15 08:38:36;;;;;;;60.58;35.25;;;10.20;99.90;;;;;;5058787;28;20029;-83
2021/12/15 08:41:09;;;;;;;61.63;34.58;;;10.30;99.90;;;;;;5076684;28;20028;-82
2021/12/15 08:43:36;;;;;;;57.38;33.05;;;10.20;99.90;;;;;;5073307;28;20041;-83
2021/12/15 08:46:09;;;;;;;52.03;33.40;;;10.20;99.90;;;;;;5074457;28;20067;-82
2021/12/15 08:48:37;;;;;;;52.28;33.10;;;10.20;99.90;;;;;;5072947;28;20032;-82
2021/12/15 08:51:05;;;;;;;56.67;35.17;;;10.20;99.90;;;;;;5075133;28;20056;-82
2021/12/15 08:53:31;;;;;;;56.35;34.33;;;10.30;99.90;;;;;;5074668;28;20025;-83
2021/12/15 08:55:57;;;;;;;55.28;34.50;;;10.40;99.90;;;;;;5075277;28;20154;-83
2021/12/15 08:58:24;;;;;;;60.45;34.05;;;10.30;99.90;;;;;;5074757;28;20027;-83
2021/12/15 09:00:53;;;;;;;59.20;34.13;;;10.40;99.90;;;;;;5074764;28;20074;-82
2021/12/15 09:03:21;;;;;;;55.85;33.55;;;10.40;99.90;;;;;;5070220;28;20090;-83
2021/12/15 09:05:49;;;;;;;54.85;33.53;;;10.40;99.90;;;;;;5073557;28;20025;-82
2021/12/15 09:08:15;;;;;;;54.58;33.00;;;10.40;99.90;;;;;;5073085;28;20031;-84
2021/12/15 09:10:44;;;;;;;51.95;32.15;;;10.30;99.90;;;;;;5058926;28;20024;-84
2021/12/15 09:13:10;;;;;;;53.03;31.40;;;10.40;99.90;;;;;;5056557;28;20145;-84
2021/12/15 09:15:37;;;;;;;54.70;32.17;;;10.40;99.90;;;;;;5056394;28;20021;-84
2021/12/15 09:18:03;;;;;;;54.63;31.63;;;10.30;99.90;;;;;;5057465;28;20075;-84
2021/12/15 09:20:34;;;;;;;49.42;30.17;;;10.40;99.90;;;;;;5057847;28;20439;-83
2021/12/15 09:23:02;;;;;;;51.72;32.50;;;10.40;99.90;;;;;;5058343;28;20037;-84
2021/12/15 09:25:28;;;;;;;49.60;29.90;;;10.30;99.90;;;;;;5060149;28;20033;-83
2021/12/15 09:27:58;;;;;;;55.28;32.70;;;10.40;99.90;;;;;;5077846;28;20024;-84
2021/12/15 09:30:28;;;;;;;54.30;32.92;;;10.40;99.90;;;;;;5076375;28;20028;-84
2021/12/15 09:32:54;;;;;;;56.65;32.75;;;10.50;99.90;;;;;;5076490;28;20081;-83
2021/12/15 09:35:21;;;;;;;56.17;30.23;;;10.40;99.90;;;;;;5076685;28;20021;-81
2021/12/15 09:37:48;;;;;;;58.13;31.05;;;10.40;99.90;;;;;;5076931;28;20025;-81
2021/12/15 09:40:17;;;;;;;54.70;31.50;;;10.40;99.90;;;;;;5076092;28;20036;-83
2021/12/15 09:42:44;;;;;;;49.22;29.92;;;10.40;99.90;;;;;;5079226;28;20023;-83
2021/12/15 10:19:57;;;;;;;48.97;27.65;;;10.60;99.90;;;;;;5072896;28;20074;-85
2021/12/15 10:25:24;;;;;;;51.78;28.20;;;10.70;99.90;;;;;;5072806;28;20041;-85
2021/12/15 10:28:12;;;;;;;51.92;27.70;;;10.70;99.90;;;;;;5073397;28;20458;-83
2021/12/15 10:30:41;;;;;;;43.38;27.02;;;10.80;99.90;;;;;;5072362;28;20086;-85
2021/12/15 10:33:25;;;;;;;44.58;27.40;;;11.00;99.90;;;;;;5074379;28;20048;-84
2021/12/15 10:36:06;;;;;;;43.08;27.30;;;11.00;99.90;;;;;;5072992;28;20036;-85
2021/12/15 10:38:44;;;;;;;38.30;25.50;;;11.00;99.90;;;;;;5073917;28;20037;-85
2021/12/15 10:41:14;;;;;;;37.45;24.77;;;10.90;99.90;;;;;;5074144;28;20362;-86
2021/12/15 10:44:14;;;;;;;39.63;24.17;;;11.00;99.90;;;;;;5073989;28;20095;-86
2021/12/15 10:46:54;;;;;;;40.65;24.05;;;10.90;99.90;;;;;;5072474;28;20496;-82
2021/12/15 10:49:25;;;;;;;37.55;24.85;;;10.80;99.90;;;;;;5073734;28;20036;-85
2021/12/15 10:51:54;;;;;;;;;;;10.70;99.90;;;;;;5074348;28;20036;-85
2021/12/15 10:54:29;;;;;;;40.47;25.17;;;10.80;99.90;;;;;;5055715;28;20253;-85
2021/12/15 10:57:10;;;;;;;45.58;28.00;;;10.90;99.90;;;;;;5055656;28;20032;-86
2021/12/15 10:59:45;;;;;;;38.80;24.83;;;10.80;99.90;;;;;;5073418;28;20039;-83
2021/12/15 11:02:21;;;;;;;41.70;25.90;;;10.60;99.90;;;;;;5056715;28;20032;-84
2021/12/15 11:05:22;;;;;;;41.28;26.23;;;10.60;99.90;;;;;;5073527;28;20146;-81
2021/12/15 11:07:54;;;;;;;39.40;24.00;;;10.90;99.90;;;;;;5068183;28;20477;-85
2021/12/15 11:10:27;;;;;;;33.78;21.85;;;10.80;99.90;;;;;;5053649;28;20090;-85
2021/12/15 11:12:54;;;;;;;32.75;21.85;;;10.70;99.90;;;;;;5051980;28;20031;-85
2021/12/15 11:15:27;;;;;;;37.13;24.40;;;10.90;99.90;;;;;;5053179;28;20037;-86
2021/12/15 11:17:57;;;;;;;47.28;26.20;;;11.00;99.90;;;;;;5053512;28;20557;-86
2021/12/15 11:20:27;;;;;;;38.10;25.02;;;11.10;99.90;;;;;;5053038;28;20041;-85
2021/12/15 11:23:00;;;;;;;32.67;22.50;;;11.20;99.90;;;;;;5052651;28;20048;-83
2021/12/15 11:25:43;;;;;;;33.60;23.92;;;11.00;99.90;;;;;;5060195;28;20044;-84
2021/12/15 11:28:24;;;;;;;36.85;24.88;;;11.00;99.90;;;;;;5061013;28;20025;-82
2021/12/15 11:30:50;;;;;;;49.28;26.10;;;10.90;99.90;;;;;;5052585;28;20029;-81
2021/12/15 11:33:30;;;;;;;33.05;22.30;;;11.00;99.90;;;;;;5052297;28;20039;-81
2021/12/15 11:36:04;;;;;;;38.33;24.55;;;10.90;99.90;;;;;;5051652;28;20033;-82
2021/12/15 11:38:31;;;;;;;32.50;23.05;;;10.90;99.90;;;;;;5053084;28;20029;-80
2021/12/15 11:40:57;;;;;;;35.28;22.80;;;11.00;99.90;;;;;;5052862;28;20025;-80
2021/12/15 11:43:38;;;;;;;37.10;22.70;;;11.00;99.90;;;;;;5052111;28;20413;-81
2021/12/15 11:46:17;;;;;;;32.97;22.13;;;10.90;99.90;;;;;;5053183;28;20480;-82
2021/12/15 11:48:46;;;;;;;32.53;19.95;;;11.10;99.90;;;;;;5051668;28;20362;-82
2021/12/15 11:51:12;;;;;;;29.20;21.15;;;10.90;99.90;;;;;;5051511;28;20025;-82
2021/12/15 11:53:47;;;;;;;34.50;22.42;;;10.90;99.90;;;;;;5052634;28;20496;-82
2021/12/15 11:56:13;;;;;;;31.67;22.00;;;10.90;99.90;;;;;;5052766;28;20377;-80
2021/12/15 11:58:39;;;;;;;33.05;18.73;;;10.80;99.90;;;;;;5052860;28;20025;-81
2021/12/15 12:01:05;;;;;;;28.42;20.20;;;10.80;99.90;;;;;;5052779;28;20378;-81
2021/12/15 12:03:30;;;;;;;33.70;21.98;;;10.80;99.90;;;;;;5052608;28;20442;-81
2021/12/15 12:05:57;;;;;;;33.20;21.25;;;10.90;99.90;;;;;;5052862;28;20025;-82
2021/12/15 12:08:23;;;;;;;37.63;22.45;;;10.90;99.90;;;;;;5057040;28;20063;-79
2021/12/15 12:10:52;;;;;;;28.23;20.13;;;11.00;99.90;;;;;;5072781;28;20029;-82
2021/12/15 12:13:23;;;;;;;32.53;20.17;;;10.90;99.90;;;;;;5072504;28;20509;-81
2021/12/15 12:15:54;;;;;;;32.70;22.63;;;11.00;99.90;;;;;;5072739;28;20096;-81
2021/12/15 12:18:24;;;;;;;29.10;20.97;;;10.90;99.90;;;;;;5072504;28;20024;-79
2021/12/15 12:20:56;;;;;;;37.40;21.98;;;11.00;99.90;;;;;;5071183;28;20041;-80
2021/12/15 12:23:31;;;;;;;33.65;21.80;;;11.00;99.90;;;;;;5072273;28;20123;-78
2021/12/15 12:26:09;;;;;;;52.45;29.20;;;10.90;99.90;;;;;;5072551;28;20068;-82
2021/12/15 12:28:41;;;;;;;54.85;30.50;;;11.00;99.90;;;;;;5072498;28;20029;-81
2021/12/15 12:31:16;;;;;;;41.58;24.52;;;10.90;99.90;;;;;;5072915;28;20047;-80
2021/12/15 12:33:42;;;;;;;34.55;22.25;;;10.90;99.90;;;;;;5077890;28;20029;-82
2021/12/15 12:36:18;;;;;;;46.33;27.92;;;10.90;99.90;;;;;;5076172;28;20124;-82
2021/12/15 12:38:56;;;;;;;39.25;25.13;;;10.90;99.90;;;;;;5072837;28;20040;-82
2021/12/15 12:41:28;;;;;;;36.35;25.02;;;10.90;99.90;;;;;;5074910;28;20032;-78
2021/12/15 12:43:57;;;;;;;37.38;25.90;;;11.00;99.90;;;;;;5076450;28;20127;-82
2021/12/15 12:46:49;;;;;;;39.28;24.77;;;11.00;99.90;;;;;;5076700;28;20123;-81
2021/12/15 12:49:50;;;;;;;36.03;23.83;;;10.90;99.90;;;;;;5076084;28;20035;-82
2021/12/15 13:01:06;;;;;;;33.05;22.77;;;10.90;99.90;;;;;;5076134;28;20103;-82
2021/12/15 13:03:43;;;;;;;35.67;24.45;;;10.90;99.90;;;;;;5075424;28;20495;-82
2021/12/15 13:06:17;;;;;;;36.03;24.70;;;10.90;99.90;;;;;;5074891;28;20040;-82
2021/12/15 13:08:49;;;;;;;44.20;24.38;;;11.00;99.90;;;;;;5068402;28;20500;-80
2021/12/15 13:11:22;;;;;;;42.72;23.98;;;11.20;99.90;;;;;;5054494;28;20051;-80
2021/12/15 13:14:06;;;;;;;34.88;23.08;;;11.00;99.90;;;;;;5038112;28;20032;-80
2021/12/15 13:16:49;;;;;;;33.63;22.60;;;11.00;99.90;;;;;;5055765;28;20036;-81
2021/12/15 13:19:27;;;;;;;40.15;23.80;;;11.00;99.90;;;;;;5056425;28;20128;-81
2021/12/15 13:22:42;;;;;;;43.90;27.10;;;11.00;99.90;;;;;;5057762;28;20025;-79
2021/12/15 13:30:50;;;;;;;34.50;22.23;;;11.00;99.90;;;;;;5056511;28;20094;-80
2021/12/15 13:33:39;;;;;;;31.73;23.30;;;11.00;99.90;;;;;;5054066;28;20119;-81
2021/12/15 13:36:10;;;;;;;38.85;23.77;;;11.00;99.90;;;;;;5054130;28;20032;-81
2021/12/15 13:38:50;;;;;;;37.90;24.17;;;11.00;99.90;;;;;;5055283;28;20074;-82
2021/12/15 13:41:40;;;;;;;36.63;23.80;;;11.00;99.90;;;;;;5055239;28;20021;-82
2021/12/15 13:44:35;;;;;;;37.17;23.90;;;11.00;99.90;;;;;;5053760;28;20041;-82
2021/12/15 13:47:06;;;;;;;39.65;22.85;;;11.00;99.90;;;;;;5054952;28;20033;-82
2021/12/15 13:49:41;;;;;;;;;;;11.00;99.90;;;;;;5055239;28;20078;-81
2021/12/15 13:52:19;;;;;;;36.47;22.38;;;11.00;99.90;;;;;;5055087;28;19967;-81
2021/12/15 13:54:45;;;;;;;39.30;23.33;;;10.90;99.90;;;;;;5053683;28;20029;-81
2021/12/15 13:57:14;;;;;;;46.63;25.25;;;10.90;99.90;;;;;;5054970;28;20055;-81
2021/12/15 14:00:04;;;;;;;34.15;22.60;;;11.00;99.90;;;;;;5036884;28;20029;-82
2021/12/15 14:02:41;;;;;;;41.67;24.70;;;10.90;99.90;;;;;;5054525;28;20029;-82
2021/12/15 14:05:16;;;;;;;52.17;29.23;;;11.00;99.90;;;;;;5053083;28;20045;-82
2021/12/15 14:08:10;;;;;;;39.17;26.55;;;11.10;99.90;;;;;;5053599;28;20032;-81
2021/12/15 14:10:36;;;;;;;44.75;25.95;;;11.10;99.90;;;;;;5052264;28;20041;-82
2021/12/15 14:13:05;;;;;;;37.65;23.70;;;11.00;99.90;;;;;;5054519;28;20496;-81
2021/12/15 14:15:42;;;;;;;36.78;24.30;;;10.90;99.90;;;;;;5054076;28;20037;-81
2021/12/15 14:18:18;;;;;;;39.40;26.23;;;10.90;99.90;;;;;;5054598;28;20087;-81
2021/12/15 14:20:59;;;;;;;40.30;24.85;;;10.90;99.90;;;;;;5036338;28;20044;-81
2021/12/15 14:23:53;;;;;;;37.83;24.80;;;10.90;99.90;;;;;;5053225;28;20466;-73
2021/12/15 14:26:27;;;;;;;40.72;27.10;;;10.80;99.90;;;;;;5065842;28;20190;-80
2021/12/15 14:29:05;;;;;;;36.38;24.15;;;10.80;99.90;;;;;;5074300;28;20075;-81
2021/12/15 14:31:33;;;;;;;41.78;26.58;;;10.80;99.90;;;;;;5056004;28;20396;-78